createdAt,value
2022-10-23T00:01:37.809Z,97353.60
2022-10-23T00:04:08.391Z,97355.39
2022-10-23T00:06:36.699Z,97354.03
2022-10-23T00:09:06.830Z,97349.51
2022-10-23T00:11:35.419Z,97352.34
2022-10-23T00:14:05.973Z,97351.32
2022-10-23T00:16:34.728Z,97344.42
2022-10-23T00:19:03.283Z,97344.14
2022-10-23T00:21:31.432Z,97348.72
2022-10-23T00:23:59.176Z,97352.41
2022-10-23T00:26:27.506Z,97355.59
2022-10-23T00:28:55.522Z,97354.23
2022-10-23T00:31:25.039Z,97356.82
2022-10-23T00:33:53.259Z,97359.52
2022-10-23T00:36:21.858Z,97367.52
2022-10-23T00:38:50.897Z,97366.09
2022-10-23T00:41:25.935Z,97370.40
2022-10-23T00:44:01.847Z,97369.42
2022-10-23T00:46:30.059Z,97373.89
2022-10-23T00:48:58.312Z,97379.42
2022-10-23T00:51:31.226Z,97386.39
2022-10-23T00:54:22.901Z,97386.85
2022-10-23T00:56:52.719Z,97388.65
2022-10-23T00:59:20.630Z,97392.13
2022-10-23T01:01:48.990Z,97393.77
2022-10-23T01:04:17.741Z,97392.71
2022-10-23T01:06:57.278Z,97391.73
2022-10-23T01:09:40.062Z,97397.10
2022-10-23T01:12:15.603Z,97399.13
2022-10-23T01:14:49.051Z,97405.56
2022-10-23T01:17:33.572Z,97412.48
2022-10-23T01:20:22.350Z,97419.59
2022-10-23T01:23:22.490Z,97426.86
2022-10-23T01:26:10.132Z,97427.27
2022-10-23T01:28:52.880Z,97429.08
2022-10-23T01:31:43.135Z,97434.30
2022-10-23T01:34:19.329Z,97436.71
2022-10-23T01:36:49.180Z,97440.24
2022-10-23T01:39:32.815Z,97443.27
2022-10-23T01:42:16.426Z,97441.23
2022-10-23T01:44:51.756Z,97440.59
2022-10-23T01:47:23.848Z,97444.95
2022-10-23T01:49:53.472Z,97446.14
2022-10-23T01:52:22.292Z,97447.49
2022-10-23T01:54:53.781Z,97447.73
2022-10-23T01:57:23.797Z,97453.59
2022-10-23T02:00:01.828Z,97459.37
2022-10-23T02:02:32.908Z,97462.70
2022-10-23T02:05:07.461Z,97464.25
2022-10-23T02:07:36.540Z,97466.42
2022-10-23T02:10:06.614Z,97467.75
2022-10-23T02:12:40.191Z,97470.56
2022-10-23T02:15:29.915Z,97468.56
2022-10-23T02:18:07.541Z,97469.92
2022-10-23T02:20:45.730Z,97474.22
2022-10-23T02:23:13.466Z,97479.88
2022-10-23T02:26:05.878Z,97481.17
2022-10-23T02:28:43.825Z,97482.80
2022-10-23T02:31:16.126Z,97485.06
2022-10-23T02:33:46.001Z,97489.02
2022-10-23T02:36:15.569Z,97487.81
2022-10-23T02:38:44.918Z,97492.03
2022-10-23T02:41:12.734Z,97497.81
2022-10-23T02:43:57.580Z,97502.35
2022-10-23T02:46:31.391Z,97508.54
2022-10-23T02:49:41.428Z,97513.73
2022-10-23T02:52:16.208Z,97522.80
2022-10-23T02:54:44.011Z,97530.65
2022-10-23T02:57:18.416Z,97535.60
2022-10-23T03:00:08.461Z,97543.55
2022-10-23T03:02:44.434Z,97545.88
2022-10-23T03:05:16.238Z,97552.64
2022-10-23T03:07:44.898Z,97555.02
2022-10-23T03:10:13.145Z,97558.99
2022-10-23T03:12:41.531Z,97558.30
2022-10-23T03:15:12.550Z,97560.92
2022-10-23T03:17:41.201Z,97568.90
2022-10-23T03:20:10.446Z,97569.88
2022-10-23T03:22:39.028Z,97575.89
2022-10-23T03:25:07.262Z,97575.66
2022-10-23T03:27:35.547Z,97574.80
2022-10-23T03:30:04.607Z,97577.67
2022-10-23T03:32:32.475Z,97576.81
2022-10-23T03:35:00.203Z,97580.32
2022-10-23T03:37:28.352Z,97583.69
2022-10-23T03:39:56.114Z,97589.70
2022-10-23T03:42:23.791Z,97591.89
2022-10-23T03:44:51.577Z,97590.70
2022-10-23T03:47:19.356Z,97598.43
2022-10-23T03:49:47.147Z,97602.29
2022-10-23T03:52:15.120Z,97602.54
2022-10-23T03:54:42.997Z,97610.43
2022-10-23T03:57:10.968Z,97609.25
2022-10-23T03:59:38.763Z,97605.84
2022-10-23T04:02:06.693Z,97605.02
2022-10-23T04:04:40.801Z,97603.75
2022-10-23T04:07:11.184Z,97608.29
2022-10-23T04:09:39.027Z,97610.47
2022-10-23T04:12:07.032Z,97610.39
2022-10-23T04:14:34.905Z,97611.20
2022-10-23T04:17:02.859Z,97613.21
2022-10-23T04:19:33.052Z,97618.05
2022-10-23T04:22:00.890Z,97620.48
2022-10-23T04:24:28.943Z,97623.70
2022-10-23T04:26:56.751Z,97625.05
2022-10-23T04:29:24.792Z,97623.98
2022-10-23T04:31:52.687Z,97623.64
2022-10-23T04:34:20.504Z,97624.88
2022-10-23T04:36:48.454Z,97624.19
2022-10-23T04:39:16.180Z,97625.48
2022-10-23T04:41:44.237Z,97631.51
2022-10-23T04:44:12.023Z,97628.36
2022-10-23T04:46:39.836Z,97633.90
2022-10-23T04:49:07.611Z,97636.42
2022-10-23T04:51:35.383Z,97636.75
2022-10-23T04:54:03.139Z,97641.10
2022-10-23T04:56:31.087Z,97641.38
2022-10-23T04:58:58.825Z,97647.03
2022-10-23T05:01:26.785Z,97651.81
2022-10-23T05:03:56.752Z,97655.42
2022-10-23T05:06:24.492Z,97658.90
2022-10-23T05:08:52.329Z,97661.77
2022-10-23T05:11:20.240Z,97666.68
2022-10-23T05:13:48.026Z,97667.72
2022-10-23T05:16:30.439Z,97668.85
2022-10-23T05:18:59.907Z,97670.00
2022-10-23T05:21:29.972Z,97673.02
2022-10-23T05:23:57.729Z,97678.48
2022-10-23T05:26:25.569Z,97687.27
2022-10-23T05:28:53.415Z,97684.41
2022-10-23T05:31:23.112Z,97695.34
2022-10-23T05:33:52.648Z,97697.14
2022-10-23T05:36:22.004Z,97696.00
2022-10-23T05:38:49.952Z,97698.16
2022-10-23T05:41:17.992Z,97699.44
2022-10-23T05:43:46.318Z,97704.61
2022-10-23T05:46:14.266Z,97706.54
2022-10-23T05:48:42.113Z,97708.86
2022-10-23T05:51:11.797Z,97711.33
2022-10-23T05:53:41.795Z,97717.17
2022-10-23T05:56:10.442Z,97719.26
2022-10-23T05:58:38.336Z,97722.29
2022-10-23T06:01:09.001Z,97725.29
2022-10-23T06:03:37.848Z,97727.66
2022-10-23T06:06:06.936Z,97731.21
2022-10-23T06:08:35.168Z,97734.61
2022-10-23T06:11:10.936Z,97736.67
2022-10-23T06:13:39.194Z,97741.11
2022-10-23T06:16:11.087Z,97745.86
2022-10-23T06:18:39.505Z,97750.50
2022-10-23T06:21:08.043Z,97753.71
2022-10-23T06:23:37.626Z,97757.08
2022-10-23T06:26:06.794Z,97761.95
2022-10-23T06:28:34.620Z,97765.24
2022-10-23T06:31:11.420Z,97767.87
2022-10-23T06:33:39.849Z,97767.98
2022-10-23T06:36:10.424Z,97774.14
2022-10-23T06:38:40.640Z,97775.83
2022-10-23T06:41:14.131Z,97777.91
2022-10-23T06:43:42.316Z,97782.22
2022-10-23T06:46:10.928Z,97779.79
2022-10-23T06:48:38.740Z,97779.38
2022-10-23T06:51:08.999Z,97783.39
2022-10-23T06:53:38.494Z,97783.61
2022-10-23T06:56:07.901Z,97782.66
2022-10-23T06:58:37.771Z,97785.90
2022-10-23T07:01:09.081Z,97790.52
2022-10-23T07:03:37.059Z,97789.81
2022-10-23T07:06:06.744Z,97790.39
2022-10-23T07:08:34.936Z,97797.63
2022-10-23T07:11:04.849Z,97802.90
2022-10-23T07:13:34.491Z,97808.63
2022-10-23T07:16:10.881Z,97811.55
2022-10-23T07:18:38.652Z,97810.10
2022-10-23T07:21:06.462Z,97811.11
2022-10-23T07:23:34.470Z,97809.38
2022-10-23T07:26:10.073Z,97809.16
2022-10-23T07:28:37.908Z,97805.98
2022-10-23T07:31:05.626Z,97807.38
2022-10-23T07:33:34.005Z,97806.41
2022-10-23T07:36:04.452Z,97807.70
2022-10-23T07:38:32.228Z,97809.31
2022-10-23T07:41:00.707Z,97809.08
2022-10-23T07:43:28.874Z,97814.13
2022-10-23T07:45:56.849Z,97816.98
2022-10-23T07:48:27.198Z,97819.30
2022-10-23T07:51:00.959Z,97824.71
2022-10-23T07:53:28.768Z,97825.55
2022-10-23T07:55:59.711Z,97828.52
2022-10-23T07:58:28.664Z,97836.69
2022-10-23T08:01:02.587Z,97836.41
2022-10-23T08:03:32.609Z,97840.67
2022-10-23T08:06:00.659Z,97836.68
2022-10-23T08:08:28.726Z,97838.20
2022-10-23T08:10:56.498Z,97836.08
2022-10-23T08:13:24.291Z,97839.45
2022-10-23T08:15:53.321Z,97840.30
2022-10-23T08:18:21.094Z,97843.50
2022-10-23T08:20:49.076Z,97844.89
2022-10-23T08:23:18.527Z,97843.74
2022-10-23T08:25:47.120Z,97843.03
2022-10-23T08:28:16.589Z,97847.95
2022-10-23T08:30:44.627Z,97854.95
2022-10-23T08:33:12.476Z,97855.55
2022-10-23T08:35:40.219Z,97855.05
2022-10-23T08:38:08.088Z,97858.58
2022-10-23T08:40:36.764Z,97857.05
2022-10-23T08:43:10.469Z,97855.91
2022-10-23T08:45:42.593Z,97856.72
2022-10-23T08:48:20.659Z,97858.98
2022-10-23T08:50:59.368Z,97858.02
2022-10-23T08:53:29.677Z,97860.02
2022-10-23T08:56:20.537Z,97865.59
2022-10-23T08:59:05.412Z,97864.91
2022-10-23T09:01:43.521Z,97869.33
2022-10-23T09:04:15.731Z,97867.80
2022-10-23T09:06:52.512Z,97868.48
2022-10-23T09:09:47.008Z,97865.01
2022-10-23T09:12:17.987Z,97868.85
2022-10-23T09:14:54.986Z,97875.73
2022-10-23T09:17:29.551Z,97871.59
2022-10-23T09:20:16.392Z,97872.55
2022-10-23T09:22:45.311Z,97874.80
2022-10-23T09:25:36.764Z,97873.87
2022-10-23T09:28:05.756Z,97871.86
2022-10-23T09:30:35.304Z,97864.79
2022-10-23T09:33:23.598Z,97862.98
2022-10-23T09:36:07.150Z,97866.77
2022-10-23T09:38:36.180Z,97868.70
2022-10-23T09:41:13.875Z,97873.21
2022-10-23T09:43:41.641Z,97868.03
2022-10-23T09:46:10.785Z,97867.37
2022-10-23T09:48:40.181Z,97864.51
2022-10-23T09:51:19.927Z,97860.40
2022-10-23T09:53:55.392Z,97865.74
2022-10-23T09:56:40.893Z,97866.58
2022-10-23T09:59:11.694Z,97869.83
2022-10-23T10:01:48.723Z,97867.80
2022-10-23T10:04:16.823Z,97867.02
2022-10-23T10:06:45.095Z,97864.30
2022-10-23T10:09:15.577Z,97860.34
2022-10-23T10:11:49.862Z,97859.20
2022-10-23T10:14:41.571Z,97860.95
2022-10-23T10:17:37.293Z,97854.61
2022-10-23T10:20:24.105Z,97851.38
2022-10-23T10:23:00.823Z,97845.79
2022-10-23T10:25:52.088Z,97844.11
2022-10-23T10:28:53.804Z,97851.80
2022-10-23T10:31:50.590Z,97850.92
2022-10-23T10:34:30.278Z,97853.42
2022-10-23T10:37:13.961Z,97854.94
2022-10-23T10:39:57.953Z,97857.70
2022-10-23T10:42:31.621Z,97856.42
2022-10-23T10:45:19.873Z,97853.80
2022-10-23T10:48:18.749Z,97854.02
2022-10-23T10:50:56.268Z,97857.96
2022-10-23T10:53:55.387Z,97856.55
2022-10-23T10:56:28.056Z,97849.27
2022-10-23T10:59:00.420Z,97851.11
2022-10-23T11:01:54.521Z,97854.23
2022-10-23T11:04:31.878Z,97859.88
2022-10-23T11:07:06.602Z,97862.66
2022-10-23T11:09:34.478Z,97865.19
2022-10-23T11:12:02.268Z,97865.48
2022-10-23T11:14:35.879Z,97858.53
2022-10-23T11:17:25.937Z,97855.73
2022-10-23T11:20:02.801Z,97856.09
2022-10-23T11:22:38.317Z,97854.41
2022-10-23T11:25:35.513Z,97851.66
2022-10-23T11:28:13.316Z,97855.33
2022-10-23T11:30:59.885Z,97851.25
2022-10-23T11:33:44.662Z,97846.55
2022-10-23T11:36:50.672Z,97853.75
2022-10-23T11:39:23.007Z,97854.84
2022-10-23T11:41:57.703Z,97847.64
2022-10-23T11:44:34.853Z,97843.45
2022-10-23T11:47:05.762Z,97845.66
2022-10-23T11:49:33.460Z,97844.81
2022-10-23T11:52:22.320Z,97841.92
2022-10-23T11:55:17.138Z,97842.61
2022-10-23T11:58:05.269Z,97842.55
2022-10-23T12:00:38.837Z,97848.34
2022-10-23T12:03:15.867Z,97845.78
2022-10-23T12:05:45.647Z,97844.89
2022-10-23T12:08:26.954Z,97849.28
2022-10-23T12:10:55.510Z,97851.64
2022-10-23T12:13:46.044Z,97849.58
2022-10-23T12:16:14.027Z,97843.90
2022-10-23T12:19:20.158Z,97841.66
2022-10-23T12:21:51.854Z,97841.97
2022-10-23T12:24:59.678Z,97841.04
2022-10-23T12:28:17.170Z,97839.79
2022-10-23T12:31:00.939Z,97839.01
2022-10-23T12:33:47.029Z,97832.88
2022-10-23T12:36:26.710Z,97832.20
2022-10-23T12:38:58.523Z,97831.97
2022-10-23T12:41:28.720Z,97835.23
2022-10-23T12:44:00.159Z,97838.77
2022-10-23T12:46:39.428Z,97840.13
2022-10-23T12:49:20.529Z,97841.79
2022-10-23T12:52:00.691Z,97839.92
2022-10-23T12:54:31.830Z,97841.66
2022-10-23T12:56:59.816Z,97843.20
2022-10-23T12:59:36.801Z,97844.04
2022-10-23T13:02:34.385Z,97844.80
2022-10-23T13:05:06.965Z,97845.36
2022-10-23T13:07:41.057Z,97843.89
2022-10-23T13:10:15.460Z,97842.23
2022-10-23T13:12:54.762Z,97840.31
2022-10-23T13:15:23.803Z,97838.35
2022-10-23T13:17:57.605Z,97840.31
2022-10-23T13:20:28.134Z,97843.45
2022-10-23T13:23:08.088Z,97843.27
2022-10-23T13:25:38.183Z,97851.46
2022-10-23T13:28:09.041Z,97853.14
2022-10-23T13:30:42.813Z,97850.89
2022-10-23T13:33:20.055Z,97857.63
2022-10-23T13:35:58.931Z,97858.91
2022-10-23T13:38:32.513Z,97859.70
2022-10-23T13:41:01.069Z,97860.38
2022-10-23T13:43:30.841Z,97862.02
2022-10-23T13:46:00.217Z,97861.16
2022-10-23T13:48:28.770Z,97862.53
2022-10-23T13:51:27.733Z,97863.45
2022-10-23T13:53:57.203Z,97866.07
2022-10-23T13:56:27.020Z,97865.72
2022-10-23T13:58:55.049Z,97862.60
2022-10-23T14:01:29.637Z,97860.32
2022-10-23T14:03:58.251Z,97857.33
2022-10-23T14:06:26.178Z,97861.70
2022-10-23T14:08:54.154Z,97860.77
2022-10-23T14:11:22.363Z,97856.28
2022-10-23T14:13:50.526Z,97854.55
2022-10-23T14:16:19.763Z,97854.19
2022-10-23T14:18:47.993Z,97848.73
2022-10-23T14:21:20.154Z,97854.10
2022-10-23T14:23:49.056Z,97857.38
2022-10-23T14:26:20.459Z,97858.63
2022-10-23T14:28:48.972Z,97859.41
2022-10-23T14:31:17.890Z,97854.12
2022-10-23T14:33:46.697Z,97851.23
2022-10-23T14:36:14.564Z,97847.27
2022-10-23T14:38:42.523Z,97849.50
2022-10-23T14:41:15.994Z,97844.73
2022-10-23T14:43:44.351Z,97844.29
2022-10-23T14:46:18.088Z,97841.69
2022-10-23T14:48:47.199Z,97840.73
2022-10-23T14:51:23.329Z,97838.24
2022-10-23T14:54:02.287Z,97841.17
2022-10-23T14:56:32.434Z,97841.05
2022-10-23T14:59:03.810Z,97840.63
2022-10-23T15:01:34.171Z,97838.75
2022-10-23T15:04:02.452Z,97837.51
2022-10-23T15:06:30.379Z,97840.95
2022-10-23T15:08:58.118Z,97841.23
2022-10-23T15:11:26.811Z,97841.55
2022-10-23T15:13:55.665Z,97845.58
2022-10-23T15:16:23.565Z,97842.79
2022-10-23T15:18:52.021Z,97843.30
2022-10-23T15:21:20.133Z,97841.71
2022-10-23T15:23:48.681Z,97841.08
2022-10-23T15:26:22.988Z,97845.55
2022-10-23T15:28:59.177Z,97847.35
2022-10-23T15:31:30.133Z,97851.59
2022-10-23T15:33:58.366Z,97857.23
2022-10-23T15:36:26.766Z,97860.30
2022-10-23T15:38:54.531Z,97858.95
2022-10-23T15:41:28.612Z,97858.64
2022-10-23T15:43:56.496Z,97864.98
2022-10-23T15:46:24.553Z,97868.03
2022-10-23T15:48:52.732Z,97871.40
2022-10-23T15:51:21.035Z,97874.60
2022-10-23T15:53:48.979Z,97883.48
2022-10-23T15:56:16.953Z,97883.54
2022-10-23T15:58:44.777Z,97884.35
2022-10-23T16:01:12.632Z,97886.66
2022-10-23T16:03:40.503Z,97886.78
2022-10-23T16:06:11.319Z,97892.25
2022-10-23T16:08:39.947Z,97894.47
2022-10-23T16:11:23.133Z,97896.67
2022-10-23T16:13:51.077Z,97893.81
2022-10-23T16:16:19.204Z,97890.70
2022-10-23T16:18:47.151Z,97891.59
2022-10-23T16:21:21.804Z,97886.84
2022-10-23T16:23:50.478Z,97886.69
2022-10-23T16:26:19.169Z,97886.84
2022-10-23T16:28:47.642Z,97887.89
2022-10-23T16:31:20.319Z,97890.95
2022-10-23T16:33:49.061Z,97894.70
2022-10-23T16:36:17.609Z,97898.26
2022-10-23T16:38:45.474Z,97902.55
2022-10-23T16:41:13.323Z,97903.89
2022-10-23T16:43:41.188Z,97904.25
2022-10-23T16:46:14.221Z,97908.55
2022-10-23T16:48:42.823Z,97915.45
2022-10-23T16:51:14.088Z,97918.85
2022-10-23T16:53:42.916Z,97922.39
2022-10-23T16:56:13.197Z,97925.46
2022-10-23T16:58:41.081Z,97927.33
2022-10-23T17:01:12.160Z,97930.66
2022-10-23T17:03:43.647Z,97936.67
2022-10-23T17:06:14.071Z,97936.58
2022-10-23T17:08:42.524Z,97933.14
2022-10-23T17:11:13.798Z,97938.75
2022-10-23T17:13:47.097Z,97938.70
2022-10-23T17:16:18.612Z,97939.27
2022-10-23T17:18:47.056Z,97942.11
2022-10-23T17:21:16.597Z,97944.34
2022-10-23T17:23:44.624Z,97944.19
2022-10-23T17:26:14.968Z,97944.02
2022-10-23T17:28:43.420Z,97940.71
2022-10-23T17:31:23.149Z,97938.38
2022-10-23T17:33:54.678Z,97934.67
2022-10-23T17:36:22.560Z,97936.33
2022-10-23T17:38:50.593Z,97933.89
2022-10-23T17:41:20.916Z,97932.65
2022-10-23T17:43:49.103Z,97927.77
2022-10-23T17:46:18.411Z,97928.21
2022-10-23T17:48:49.836Z,97924.19
2022-10-23T17:51:20.926Z,97920.20
2022-10-23T17:53:51.457Z,97918.67
2022-10-23T17:56:22.660Z,97919.60
2022-10-23T17:58:55.423Z,97917.17
2022-10-23T18:01:26.139Z,97917.89
2022-10-23T18:03:55.562Z,97918.73
2022-10-23T18:06:29.526Z,97920.14
2022-10-23T18:08:58.295Z,97919.02
2022-10-23T18:11:29.758Z,97918.13
2022-10-23T18:16:31.287Z,97913.31
2022-10-23T18:19:00.808Z,97912.81
2022-10-23T18:21:28.947Z,97910.66
2022-10-23T18:24:00.219Z,97910.44
2022-10-23T18:26:30.563Z,97904.40
2022-10-23T18:28:59.505Z,97904.36
2022-10-23T18:31:30.212Z,97909.13
2022-10-23T18:34:01.702Z,97906.86
2022-10-23T18:36:32.885Z,97905.69
2022-10-23T18:39:01.516Z,97907.59
2022-10-23T18:41:34.492Z,97903.33
2022-10-23T18:44:02.862Z,97900.65
2022-10-23T18:46:30.663Z,97899.89
2022-10-23T18:48:59.061Z,97900.45
2022-10-23T18:51:30.287Z,97902.02
2022-10-23T18:54:01.054Z,97902.78
2022-10-23T18:56:29.326Z,97899.27
2022-10-23T18:58:59.341Z,97901.86
2022-10-23T19:01:28.797Z,97897.84
2022-10-23T19:03:58.177Z,97896.53
2022-10-23T19:06:26.408Z,97894.05
2022-10-23T19:08:54.536Z,97892.85
2022-10-23T19:11:24.407Z,97889.79
2022-10-23T19:13:52.478Z,97884.38
2022-10-23T19:16:20.132Z,97885.74
2022-10-23T19:18:55.533Z,97888.23
2022-10-23T19:21:31.070Z,97881.63
2022-10-23T19:24:03.408Z,97877.85
2022-10-23T19:26:32.509Z,97878.31
2022-10-23T19:29:00.704Z,97879.70
2022-10-23T19:31:28.669Z,97881.91
2022-10-23T19:33:56.432Z,97887.36
2022-10-23T19:36:24.262Z,97897.04
2022-10-23T19:38:52.094Z,97895.21
2022-10-23T19:41:19.905Z,97897.98
2022-10-23T19:43:47.669Z,97899.97
2022-10-23T19:46:16.271Z,97904.63
2022-10-23T19:48:45.007Z,97906.92
2022-10-23T19:51:13.589Z,97903.58
2022-10-23T19:53:42.104Z,97904.73
2022-10-23T19:56:12.064Z,97906.17
2022-10-23T19:58:40.510Z,97903.29
2022-10-23T20:01:16.867Z,97900.88
2022-10-23T20:03:45.907Z,97901.48
2022-10-23T20:06:17.196Z,97900.33
2022-10-23T20:08:45.355Z,97896.39
2022-10-23T20:11:25.273Z,97892.84
2022-10-23T20:13:53.141Z,97890.42
2022-10-23T20:16:28.750Z,97890.30
2022-10-23T20:18:57.698Z,97893.20
2022-10-23T20:21:25.792Z,97891.79
2022-10-23T20:23:53.645Z,97893.98
2022-10-23T20:26:22.010Z,97890.27
2022-10-23T20:28:53.693Z,97881.63
2022-10-23T20:31:23.649Z,97886.98
2022-10-23T20:33:52.251Z,97891.61
2022-10-23T20:36:28.619Z,97897.48
2022-10-23T20:38:58.292Z,97895.87
2022-10-23T20:41:28.538Z,97894.02
2022-10-23T20:43:56.913Z,97891.75
2022-10-23T20:46:25.257Z,97891.52
2022-10-23T20:48:53.646Z,97891.69
2022-10-23T20:51:23.730Z,97890.90
2022-10-23T20:53:53.258Z,97888.27
2022-10-23T20:56:29.955Z,97889.91
2022-10-23T20:59:11.405Z,97892.83
2022-10-23T21:01:44.983Z,97896.42
2022-10-23T21:04:14.057Z,97898.71
2022-10-23T21:06:57.749Z,97895.98
2022-10-23T21:09:30.895Z,97895.32
2022-10-23T21:11:58.734Z,97889.59
2022-10-23T21:14:27.296Z,97885.36
2022-10-23T21:16:55.120Z,97883.45
2022-10-23T21:19:22.964Z,97880.69
2022-10-23T21:21:50.880Z,97873.64
2022-10-23T21:24:18.764Z,97871.75
2022-10-23T21:26:46.808Z,97870.08
2022-10-23T21:29:19.424Z,97862.45
2022-10-23T21:31:52.928Z,97859.02
2022-10-23T21:34:20.836Z,97853.48
2022-10-23T21:37:11.290Z,97843.44
2022-10-23T21:39:36.575Z,97842.54
2022-10-23T21:42:04.852Z,97845.14
2022-10-23T21:44:32.782Z,97852.59
2022-10-23T21:47:00.651Z,97865.34
2022-10-23T21:49:28.512Z,97871.30
2022-10-23T21:51:56.453Z,97873.29
2022-10-23T21:54:24.289Z,97875.13
2022-10-23T21:56:55.692Z,97868.91
2022-10-23T21:59:27.840Z,97868.10
2022-10-23T22:01:58.099Z,97859.16
2022-10-23T22:04:25.910Z,97856.03
2022-10-23T22:06:53.742Z,97857.45
2022-10-23T22:09:22.362Z,97856.40
2022-10-23T22:11:51.327Z,97855.14
2022-10-23T22:14:21.073Z,97858.67
2022-10-23T22:16:49.296Z,97859.43
2022-10-23T22:19:18.371Z,97860.10
2022-10-23T22:21:46.772Z,97866.94
2022-10-23T22:24:15.697Z,97876.79
2022-10-23T22:26:46.659Z,97881.14
2022-10-23T22:29:17.479Z,97880.93
2022-10-23T22:31:48.872Z,97877.43
2022-10-23T22:34:28.620Z,97879.37
2022-10-23T22:37:01.778Z,97882.57
2022-10-23T22:39:29.579Z,97878.00
2022-10-23T22:41:57.416Z,97877.86
2022-10-23T22:44:25.299Z,97878.75
2022-10-23T22:46:53.222Z,97871.03
2022-10-23T22:49:21.024Z,97868.36
2022-10-23T22:51:48.968Z,97861.36
2022-10-23T22:54:16.675Z,97864.22
2022-10-23T22:56:44.507Z,97869.05
2022-10-23T22:59:12.281Z,97871.02
2022-10-23T23:01:43.919Z,97872.83
2022-10-23T23:04:36.869Z,97873.67
2022-10-23T23:07:00.733Z,97871.72
2022-10-23T23:09:28.589Z,97871.92
2022-10-23T23:11:56.362Z,97870.46
2022-10-23T23:14:24.649Z,97870.80
2022-10-23T23:16:53.301Z,97870.23
2022-10-23T23:19:23.012Z,97869.96
2022-10-23T23:21:50.973Z,97867.54
2022-10-23T23:24:18.715Z,97863.30
2022-10-23T23:26:46.506Z,97859.02
2022-10-23T23:29:14.250Z,97857.67
2022-10-23T23:31:42.269Z,97858.94
2022-10-23T23:34:10.530Z,97864.17
2022-10-23T23:36:38.337Z,97862.71
2022-10-23T23:39:06.178Z,97861.25
2022-10-23T23:41:34.205Z,97863.54
2022-10-23T23:44:02.004Z,97863.89
2022-10-23T23:46:30.001Z,97858.48
2022-10-23T23:48:58.055Z,97862.70
2022-10-23T23:51:26.342Z,97863.61
2022-10-23T23:53:54.562Z,97859.66
2022-10-23T23:56:22.637Z,97859.67
2022-10-23T23:58:50.522Z,97855.16
